sensor_id;sensor_type;location;lat;lon;timestamp;pressure;altitude;pressure_sealevel;temperature
72405;BMP280;60395;52.020;113.548;2023-02-27T00:00:27;92884.59;;;-0.64
72405;BMP280;60395;52.020;113.548;2023-02-27T00:03:30;92882.78;;;-0.60
72405;BMP280;60395;52.020;113.548;2023-02-27T00:06:33;92881.66;;;-0.55
72405;BMP280;60395;52.020;113.548;2023-02-27T00:09:37;92887.63;;;-0.50
72405;BMP280;60395;52.020;113.548;2023-02-27T00:12:41;92902.09;;;-0.41
72405;BMP280;60395;52.020;113.548;2023-02-27T00:15:46;92904.66;;;-0.41
72405;BMP280;60395;52.020;113.548;2023-02-27T00:18:51;92900.75;;;-0.42
72405;BMP280;60395;52.020;113.548;2023-02-27T00:21:54;92903.41;;;-0.40
72405;BMP280;60395;52.020;113.548;2023-02-27T00:24:57;92910.63;;;-0.36
72405;BMP280;60395;52.020;113.548;2023-02-27T00:28:01;92905.56;;;-0.32
72405;BMP280;60395;52.020;113.548;2023-02-27T00:31:06;92919.31;;;-0.28
72405;BMP280;60395;52.020;113.548;2023-02-27T00:34:09;92919.47;;;-0.22
72405;BMP280;60395;52.020;113.548;2023-02-27T00:37:12;92918.28;;;-0.19
72405;BMP280;60395;52.020;113.548;2023-02-27T00:40:16;92919.66;;;-0.16
72405;BMP280;60395;52.020;113.548;2023-02-27T00:43:20;92927.53;;;-0.12
72405;BMP280;60395;52.020;113.548;2023-02-27T00:46:24;92936.00;;;-0.09
72405;BMP280;60395;52.020;113.548;2023-02-27T00:49:27;92933.41;;;-0.09
72405;BMP280;60395;52.020;113.548;2023-02-27T00:52:30;92933.41;;;-0.09
72405;BMP280;60395;52.020;113.548;2023-02-27T00:55:35;92939.53;;;0.02
72405;BMP280;60395;52.020;113.548;2023-02-27T00:58:38;92941.41;;;-0.01
72405;BMP280;60395;52.020;113.548;2023-02-27T01:01:41;92951.75;;;-0.01
72405;BMP280;60395;52.020;113.548;2023-02-27T01:04:46;92955.00;;;-0.01
72405;BMP280;60395;52.020;113.548;2023-02-27T01:07:49;92956.25;;;-0.02
72405;BMP280;60395;52.020;113.548;2023-02-27T01:10:56;92960.84;;;0.02
72405;BMP280;60395;52.020;113.548;2023-02-27T01:13:59;92961.63;;;0.07
72405;BMP280;60395;52.020;113.548;2023-02-27T01:17:03;92974.31;;;0.20
72405;BMP280;60395;52.020;113.548;2023-02-27T01:20:08;92976.03;;;0.35
72405;BMP280;60395;52.020;113.548;2023-02-27T01:23:14;92976.31;;;0.46
72405;BMP280;60395;52.020;113.548;2023-02-27T01:26:18;92984.50;;;0.60
72405;BMP280;60395;52.020;113.548;2023-02-27T01:29:21;92984.22;;;0.73
72405;BMP280;60395;52.020;113.548;2023-02-27T01:32:24;92987.16;;;0.85
72405;BMP280;60395;52.020;113.548;2023-02-27T01:35:28;93003.44;;;0.90
72405;BMP280;60395;52.020;113.548;2023-02-27T01:38:31;92995.09;;;0.92
72405;BMP280;60395;52.020;113.548;2023-02-27T01:41:34;93003.44;;;0.90
72405;BMP280;60395;52.020;113.548;2023-02-27T01:48:13;93007.56;;;1.23
72405;BMP280;60395;52.020;113.548;2023-02-27T01:51:20;93004.50;;;1.54
72405;BMP280;60395;52.020;113.548;2023-02-27T01:54:25;93010.50;;;1.89
72405;BMP280;60395;52.020;113.548;2023-02-27T01:57:28;93010.81;;;2.31
72405;BMP280;60395;52.020;113.548;2023-02-27T02:00:31;93004.09;;;2.49
72405;BMP280;60395;52.020;113.548;2023-02-27T02:03:49;93007.16;;;2.72
72405;BMP280;60395;52.020;113.548;2023-02-27T02:07:03;93007.28;;;2.78
72405;BMP280;60395;52.020;113.548;2023-02-27T02:10:07;93014.56;;;2.85
72405;BMP280;60395;52.020;113.548;2023-02-27T02:13:10;93016.50;;;2.85
72405;BMP280;60395;52.020;113.548;2023-02-27T02:29:46;93015.94;;;2.88
72405;BMP280;60395;52.020;113.548;2023-02-27T02:37:07;93024.91;;;2.83
72405;BMP280;60395;52.020;113.548;2023-02-27T02:40:15;93027.34;;;2.75
72405;BMP280;60395;52.020;113.548;2023-02-27T02:50:12;93027.72;;;2.95
72405;BMP280;60395;52.020;113.548;2023-02-27T02:53:27;93031.38;;;3.16
72405;BMP280;60395;52.020;113.548;2023-02-27T02:56:51;93031.00;;;3.30
72405;BMP280;60395;52.020;113.548;2023-02-27T03:00:10;93036.25;;;3.34
72405;BMP280;60395;52.020;113.548;2023-02-27T03:03:31;93040.63;;;3.25
72405;BMP280;60395;52.020;113.548;2023-02-27T03:06:41;93036.44;;;3.10
72405;BMP280;60395;52.020;113.548;2023-02-27T03:09:59;93033.72;;;3.04
72405;BMP280;60395;52.020;113.548;2023-02-27T03:13:13;93029.06;;;2.96
72405;BMP280;60395;52.020;113.548;2023-02-27T03:19:35;93039.88;;;3.19
72405;BMP280;60395;52.020;113.548;2023-02-27T03:22:42;93037.69;;;3.41
72405;BMP280;60395;52.020;113.548;2023-02-27T03:25:48;93028.81;;;3.54
72405;BMP280;60395;52.020;113.548;2023-02-27T03:29:15;93027.09;;;3.67
72405;BMP280;60395;52.020;113.548;2023-02-27T03:32:51;93030.69;;;3.85
72405;BMP280;60395;52.020;113.548;2023-02-27T03:39:24;93030.13;;;3.93
72405;BMP280;60395;52.020;113.548;2023-02-27T03:46:10;93019.31;;;3.67
72405;BMP280;60395;52.020;113.548;2023-02-27T03:49:15;93007.50;;;3.60
72405;BMP280;60395;52.020;113.548;2023-02-27T03:52:19;93011.09;;;3.42
72405;BMP280;60395;52.020;113.548;2023-02-27T03:55:35;93006.69;;;3.13
72405;BMP280;60395;52.020;113.548;2023-02-27T03:58:40;93002.47;;;2.98
72405;BMP280;60395;52.020;113.548;2023-02-27T04:01:46;93005.84;;;3.04
72405;BMP280;60395;52.020;113.548;2023-02-27T04:04:50;93006.38;;;2.97
72405;BMP280;60395;52.020;113.548;2023-02-27T04:08:39;92994.00;;;3.31
72405;BMP280;60395;52.020;113.548;2023-02-27T04:12:03;93004.00;;;3.83
72405;BMP280;60395;52.020;113.548;2023-02-27T04:35:52;92989.94;;;2.54
72405;BMP280;60395;52.020;113.548;2023-02-27T04:39:04;92986.97;;;2.68
72405;BMP280;60395;52.020;113.548;2023-02-27T04:42:15;92989.69;;;2.74
72405;BMP280;60395;52.020;113.548;2023-02-27T04:45:23;92997.63;;;2.80
72405;BMP280;60395;52.020;113.548;2023-02-27T04:48:42;92988.66;;;2.87
72405;BMP280;60395;52.020;113.548;2023-02-27T04:55:09;92993.41;;;2.99
72405;BMP280;60395;52.020;113.548;2023-02-27T04:58:19;93000.63;;;2.71
72405;BMP280;60395;52.020;113.548;2023-02-27T05:01:36;93008.31;;;2.35
72405;BMP280;60395;52.020;113.548;2023-02-27T05:04:43;93009.94;;;1.92
72405;BMP280;60395;52.020;113.548;2023-02-27T05:07:52;92996.72;;;1.54
72405;BMP280;60395;52.020;113.548;2023-02-27T05:11:04;92992.94;;;1.34
72405;BMP280;60395;52.020;113.548;2023-02-27T05:14:13;92998.13;;;1.34
72405;BMP280;60395;52.020;113.548;2023-02-27T05:18:11;92987.78;;;1.59
72405;BMP280;60395;52.020;113.548;2023-02-27T05:21:25;92997.94;;;1.77
72405;BMP280;60395;52.020;113.548;2023-02-27T05:24:54;92980.06;;;1.89
72405;BMP280;60395;52.020;113.548;2023-02-27T05:28:28;92984.81;;;1.99
72405;BMP280;60395;52.020;113.548;2023-02-27T05:31:40;92985.84;;;2.13
72405;BMP280;60395;52.020;113.548;2023-02-27T05:35:11;92980.81;;;2.22
72405;BMP280;60395;52.020;113.548;2023-02-27T05:38:18;92988.09;;;2.29
72405;BMP280;60395;52.020;113.548;2023-02-27T05:41:39;92980.72;;;2.47
72405;BMP280;60395;52.020;113.548;2023-02-27T05:44:49;92989.38;;;2.58
72405;BMP280;60395;52.020;113.548;2023-02-27T05:48:05;92987.66;;;2.69
72405;BMP280;60395;52.020;113.548;2023-02-27T05:51:12;92979.06;;;2.92
72405;BMP280;60395;52.020;113.548;2023-02-27T05:54:33;92974.88;;;3.13
72405;BMP280;60395;52.020;113.548;2023-02-27T05:57:43;92981.63;;;3.28
72405;BMP280;60395;52.020;113.548;2023-02-27T06:01:03;92978.44;;;3.31
72405;BMP280;60395;52.020;113.548;2023-02-27T06:04:07;92979.25;;;3.40
72405;BMP280;60395;52.020;113.548;2023-02-27T06:07:12;92979.22;;;3.38
72405;BMP280;60395;52.020;113.548;2023-02-27T06:10:18;92976.16;;;3.49
72405;BMP280;60395;52.020;113.548;2023-02-27T06:13:23;92972.41;;;3.57
72405;BMP280;60395;52.020;113.548;2023-02-27T06:16:26;92974.44;;;3.62
72405;BMP280;60395;52.020;113.548;2023-02-27T06:19:30;92973.84;;;3.66
72405;BMP280;60395;52.020;113.548;2023-02-27T06:22:34;92969.81;;;3.57
72405;BMP280;60395;52.020;113.548;2023-02-27T06:25:38;92979.47;;;3.54
72405;BMP280;60395;52.020;113.548;2023-02-27T06:28:41;92978.13;;;3.51
72405;BMP280;60395;52.020;113.548;2023-02-27T06:31:45;92975.94;;;3.35
72405;BMP280;60395;52.020;113.548;2023-02-27T06:34:48;92971.75;;;3.18
72405;BMP280;60395;52.020;113.548;2023-02-27T06:37:51;92979.88;;;3.02
72405;BMP280;60395;52.020;113.548;2023-02-27T06:40:55;92978.75;;;2.78
72405;BMP280;60395;52.020;113.548;2023-02-27T06:43:58;92984.41;;;2.70
72405;BMP280;60395;52.020;113.548;2023-02-27T06:47:02;92987.59;;;2.67
72405;BMP280;60395;52.020;113.548;2023-02-27T06:50:06;92986.78;;;2.58
72405;BMP280;60395;52.020;113.548;2023-02-27T06:53:09;92993.72;;;2.49
72405;BMP280;60395;52.020;113.548;2023-02-27T06:56:13;92990.47;;;2.49
72405;BMP280;60395;52.020;113.548;2023-02-27T06:59:16;92993.06;;;2.49
72405;BMP280;60395;52.020;113.548;2023-02-27T07:02:20;93003.56;;;2.55
72405;BMP280;60395;52.020;113.548;2023-02-27T07:05:25;92999.78;;;2.60
72405;BMP280;60395;52.020;113.548;2023-02-27T07:08:29;93013.41;;;2.61
72405;BMP280;60395;52.020;113.548;2023-02-27T07:11:32;93009.84;;;2.46
72405;BMP280;60395;52.020;113.548;2023-02-27T07:14:36;93008.44;;;2.41
72405;BMP280;60395;52.020;113.548;2023-02-27T07:17:40;93014.31;;;2.43
72405;BMP280;60395;52.020;113.548;2023-02-27T07:20:43;93011.22;;;2.49
72405;BMP280;60395;52.020;113.548;2023-02-27T07:23:46;93017.56;;;2.44
72405;BMP280;60395;52.020;113.548;2023-02-27T07:26:50;93009.81;;;2.44
72405;BMP280;60395;52.020;113.548;2023-02-27T07:29:53;93015.44;;;2.34
72405;BMP280;60395;52.020;113.548;2023-02-27T07:32:57;93010.84;;;2.33
72405;BMP280;60395;52.020;113.548;2023-02-27T07:36:01;93012.44;;;2.16
72405;BMP280;60395;52.020;113.548;2023-02-27T07:39:05;93015.41;;;2.04
72405;BMP280;60395;52.020;113.548;2023-02-27T07:42:08;93016.06;;;2.05
72405;BMP280;60395;52.020;113.548;2023-02-27T07:45:14;93017.88;;;1.98
72405;BMP280;60395;52.020;113.548;2023-02-27T07:48:20;93024.84;;;1.94
72405;BMP280;60395;52.020;113.548;2023-02-27T07:51:23;93018.13;;;1.83
72405;BMP280;60395;52.020;113.548;2023-02-27T07:54:27;93021.63;;;1.67
72405;BMP280;60395;52.020;113.548;2023-02-27T07:57:30;93021.06;;;1.71
72405;BMP280;60395;52.020;113.548;2023-02-27T08:00:33;93017.28;;;1.74
72405;BMP280;60395;52.020;113.548;2023-02-27T08:03:37;93021.84;;;1.76
72405;BMP280;60395;52.020;113.548;2023-02-27T08:06:40;93017.28;;;1.74
72405;BMP280;60395;52.020;113.548;2023-02-27T08:09:44;93018.34;;;1.65
72405;BMP280;60395;52.020;113.548;2023-02-27T08:12:47;93023.31;;;1.57
72405;BMP280;60395;52.020;113.548;2023-02-27T08:15:50;93025.91;;;1.57
72405;BMP280;60395;52.020;113.548;2023-02-27T08:18:56;93025.75;;;1.51
72405;BMP280;60395;52.020;113.548;2023-02-27T08:21:59;93032.34;;;1.56
72405;BMP280;60395;52.020;113.548;2023-02-27T08:25:04;93024.31;;;1.46
72405;BMP280;60395;52.020;113.548;2023-02-27T08:28:09;93029.16;;;1.32
72405;BMP280;60395;52.020;113.548;2023-02-27T08:31:13;93032.84;;;1.24
72405;BMP280;60395;52.020;113.548;2023-02-27T08:34:17;93044.84;;;1.14
72405;BMP280;60395;52.020;113.548;2023-02-27T08:37:20;93034.09;;;1.00
72405;BMP280;60395;52.020;113.548;2023-02-27T08:40:24;93041.16;;;0.75
72405;BMP280;60395;52.020;113.548;2023-02-27T08:43:27;93048.00;;;0.67
72405;BMP280;60395;52.020;113.548;2023-02-27T08:46:30;93051.16;;;0.63
72405;BMP280;60395;52.020;113.548;2023-02-27T08:49:34;93046.09;;;0.46
72405;BMP280;60395;52.020;113.548;2023-02-27T08:52:38;93051.81;;;0.42
72405;BMP280;60395;52.020;113.548;2023-02-27T08:55:42;93048.28;;;0.31
72405;BMP280;60395;52.020;113.548;2023-02-27T08:58:45;93048.63;;;0.22
72405;BMP280;60395;52.020;113.548;2023-02-27T09:01:49;93052.75;;;0.09
72405;BMP280;60395;52.020;113.548;2023-02-27T09:04:52;93062.81;;;0.01
72405;BMP280;60395;52.020;113.548;2023-02-27T09:07:55;93073.94;;;-0.14
72405;BMP280;60395;52.020;113.548;2023-02-27T09:10:59;93071.28;;;-0.16
72405;BMP280;60395;52.020;113.548;2023-02-27T09:14:03;93061.50;;;-0.20
72405;BMP280;60395;52.020;113.548;2023-02-27T09:17:07;93069.91;;;-0.19
72405;BMP280;60395;52.020;113.548;2023-02-27T09:20:11;93076.84;;;-0.24
72405;BMP280;60395;52.020;113.548;2023-02-27T09:23:14;93079.44;;;-0.24
72405;BMP280;60395;52.020;113.548;2023-02-27T09:26:17;93082.59;;;-0.25
72405;BMP280;60395;52.020;113.548;2023-02-27T09:29:24;93087.19;;;-0.42
72405;BMP280;60395;52.020;113.548;2023-02-27T09:32:29;93091.56;;;-0.46
72405;BMP280;60395;52.020;113.548;2023-02-27T09:35:33;93097.22;;;-0.50
72405;BMP280;60395;52.020;113.548;2023-02-27T09:38:37;93100.44;;;-0.51
72405;BMP280;60395;52.020;113.548;2023-02-27T09:45:05;93109.44;;;-0.70
72405;BMP280;60395;52.020;113.548;2023-02-27T09:48:33;93110.31;;;-0.81
72405;BMP280;60395;52.020;113.548;2023-02-27T09:51:38;93118.94;;;-0.92
72405;BMP280;60395;52.020;113.548;2023-02-27T09:54:42;93114.22;;;-0.98
72405;BMP280;60395;52.020;113.548;2023-02-27T09:57:55;93122.63;;;-0.97
72405;BMP280;60395;52.020;113.548;2023-02-27T10:01:12;93136.34;;;-1.10
72405;BMP280;60395;52.020;113.548;2023-02-27T10:04:31;93138.69;;;-1.16
72405;BMP280;60395;52.020;113.548;2023-02-27T10:07:39;93149.78;;;-1.30
72405;BMP280;60395;52.020;113.548;2023-02-27T10:10:58;93150.09;;;-1.37
72405;BMP280;60395;52.020;113.548;2023-02-27T10:17:34;93153.44;;;-1.35
72405;BMP280;60395;52.020;113.548;2023-02-27T10:20:44;93162.00;;;-1.46
72405;BMP280;60395;52.020;113.548;2023-02-27T10:24:24;93163.09;;;-1.51
72405;BMP280;60395;52.020;113.548;2023-02-27T10:27:30;93166.25;;;-1.52
72405;BMP280;60395;52.020;113.548;2023-02-27T10:30:34;93170.84;;;-1.51
72405;BMP280;60395;52.020;113.548;2023-02-27T10:33:41;93173.97;;;-1.52
72405;BMP280;60395;52.020;113.548;2023-02-27T10:36:46;93179.03;;;-1.54
72405;BMP280;60395;52.020;113.548;2023-02-27T10:39:56;93187.28;;;-1.58
72405;BMP280;60395;52.020;113.548;2023-02-27T10:43:01;93196.00;;;-1.65
72405;BMP280;60395;52.020;113.548;2023-02-27T10:46:31;93194.50;;;-1.70
72405;BMP280;60395;52.020;113.548;2023-02-27T10:49:37;93198.84;;;-1.75
72405;BMP280;60395;52.020;113.548;2023-02-27T10:52:49;93193.78;;;-1.88
72405;BMP280;60395;52.020;113.548;2023-02-27T10:56:04;93191.09;;;-1.90
72405;BMP280;60395;52.020;113.548;2023-02-27T10:59:21;93191.94;;;-2.01
72405;BMP280;60395;52.020;113.548;2023-02-27T11:02:39;93189.75;;;-2.07
72405;BMP280;60395;52.020;113.548;2023-02-27T11:05:52;93190.75;;;-2.14
72405;BMP280;60395;52.020;113.548;2023-02-27T11:09:19;93210.09;;;-2.13
72405;BMP280;60395;52.020;113.548;2023-02-27T11:12:33;93223.22;;;-2.23
72405;BMP280;60395;52.020;113.548;2023-02-27T11:15:37;93221.97;;;-2.35
72405;BMP280;60395;52.020;113.548;2023-02-27T11:18:48;93231.16;;;-2.46
72405;BMP280;60395;52.020;113.548;2023-02-27T11:22:20;93239.69;;;-2.71
72405;BMP280;60395;52.020;113.548;2023-02-27T11:25:25;93246.69;;;-2.87
72405;BMP280;60395;52.020;113.548;2023-02-27T11:28:29;93237.53;;;-3.04
72405;BMP280;60395;52.020;113.548;2023-02-27T11:31:34;93247.34;;;-3.14
72405;BMP280;60395;52.020;113.548;2023-02-27T11:34:51;93242.75;;;-3.29
72405;BMP280;60395;52.020;113.548;2023-02-27T11:37:58;93244.75;;;-3.41
72405;BMP280;60395;52.020;113.548;2023-02-27T11:41:03;93250.72;;;-3.50
72405;BMP280;60395;52.020;113.548;2023-02-27T11:44:17;93250.31;;;-3.58
72405;BMP280;60395;52.020;113.548;2023-02-27T11:47:47;93262.22;;;-3.65
72405;BMP280;60395;52.020;113.548;2023-02-27T11:57:49;93286.47;;;-3.80
72405;BMP280;60395;52.020;113.548;2023-02-27T12:01:02;93299.13;;;-3.84
72405;BMP280;60395;52.020;113.548;2023-02-27T12:07:50;93296.53;;;-3.84
72405;BMP280;60395;52.020;113.548;2023-02-27T12:11:02;93302.03;;;-3.89
72405;BMP280;60395;52.020;113.548;2023-02-27T12:14:28;93296.28;;;-4.01
72405;BMP280;60395;52.020;113.548;2023-02-27T12:17:39;93301.09;;;-4.08
72405;BMP280;60395;52.020;113.548;2023-02-27T12:21:09;93312.16;;;-4.17
72405;BMP280;60395;52.020;113.548;2023-02-27T12:27:42;93319.22;;;-4.40
72405;BMP280;60395;52.020;113.548;2023-02-27T12:30:58;93323.16;;;-4.51
72405;BMP280;60395;52.020;113.548;2023-02-27T12:35:18;93328.28;;;-4.63
72405;BMP280;60395;52.020;113.548;2023-02-27T12:37:48;93344.47;;;-4.72
72405;BMP280;60395;52.020;113.548;2023-02-27T12:44:38;93353.13;;;-4.89
72405;BMP280;60395;52.020;113.548;2023-02-27T12:47:45;93354.66;;;-4.95
72405;BMP280;60395;52.020;113.548;2023-02-27T12:51:17;93358.25;;;-5.00
72405;BMP280;60395;52.020;113.548;2023-02-27T12:54:46;93366.16;;;-5.08
72405;BMP280;60395;52.020;113.548;2023-02-27T13:08:33;93381.00;;;-5.28
72405;BMP280;60395;52.020;113.548;2023-02-27T13:18:36;93367.59;;;-5.49
72405;BMP280;60395;52.020;113.548;2023-02-27T13:24:50;93373.44;;;-5.59
72405;BMP280;60395;52.020;113.548;2023-02-27T13:27:59;93369.19;;;-5.66
72405;BMP280;60395;52.020;113.548;2023-02-27T13:34:54;93375.06;;;-5.75
72405;BMP280;60395;52.020;113.548;2023-02-27T13:38:01;93382.59;;;-5.77
72405;BMP280;60395;52.020;113.548;2023-02-27T13:53:36;93395.69;;;-6.04
72405;BMP280;60395;52.020;113.548;2023-02-27T13:56:46;93395.56;;;-6.06
72405;BMP280;60395;52.020;113.548;2023-02-27T14:00:01;93410.34;;;-6.04
72405;BMP280;60395;52.020;113.548;2023-02-27T14:03:19;93411.88;;;-6.11
72405;BMP280;60395;52.020;113.548;2023-02-27T14:06:25;93419.16;;;-6.17
72405;BMP280;60395;52.020;113.548;2023-02-27T14:09:35;93421.03;;;-6.17
72405;BMP280;60395;52.020;113.548;2023-02-27T14:12:41;93414.66;;;-6.28
72405;BMP280;60395;52.020;113.548;2023-02-27T14:15:50;93428.78;;;-6.27
72405;BMP280;60395;52.020;113.548;2023-02-27T14:18:58;93428.50;;;-6.31
72405;BMP280;60395;52.020;113.548;2023-02-27T14:22:27;93434.84;;;-6.32
72405;BMP280;60395;52.020;113.548;2023-02-27T14:25:34;93441.16;;;-6.33
72405;BMP280;60395;52.020;113.548;2023-02-27T14:28:47;93435.13;;;-6.38
72405;BMP280;60395;52.020;113.548;2023-02-27T14:31:53;93445.66;;;-6.43
72405;BMP280;60395;52.020;113.548;2023-02-27T14:34:56;93448.03;;;-6.45
72405;BMP280;60395;52.020;113.548;2023-02-27T14:38:07;93445.13;;;-6.51
72405;BMP280;60395;52.020;113.548;2023-02-27T14:44:42;93441.78;;;-6.54
72405;BMP280;60395;52.020;113.548;2023-02-27T14:47:46;93446.88;;;-6.54
72405;BMP280;60395;52.020;113.548;2023-02-27T14:50:52;93441.91;;;-6.52
72405;BMP280;60395;52.020;113.548;2023-02-27T14:57:04;93457.25;;;-6.52
72405;BMP280;60395;52.020;113.548;2023-02-27T15:00:47;93464.34;;;-6.50
72405;BMP280;60395;52.020;113.548;2023-02-27T15:03:55;93462.75;;;-6.55
72405;BMP280;60395;52.020;113.548;2023-02-27T15:07:00;93473.66;;;-6.55
72405;BMP280;60395;52.020;113.548;2023-02-27T15:10:06;93471.34;;;-6.60
72405;BMP280;60395;52.020;113.548;2023-02-27T15:16:34;93475.69;;;-6.63
72405;BMP280;60395;52.020;113.548;2023-02-27T15:19:54;93483.88;;;-6.64
72405;BMP280;60395;52.020;113.548;2023-02-27T15:23:00;93484.94;;;-6.67
72405;BMP280;60395;52.020;113.548;2023-02-27T15:26:03;93488.59;;;-6.71
72405;BMP280;60395;52.020;113.548;2023-02-27T15:29:07;93482.66;;;-6.73
72405;BMP280;60395;52.020;113.548;2023-02-27T15:35:34;93482.66;;;-6.83
72405;BMP280;60395;52.020;113.548;2023-02-27T15:38:38;93489.94;;;-6.89
72405;BMP280;60395;52.020;113.548;2023-02-27T15:41:57;93491.03;;;-6.92
72405;BMP280;60395;52.020;113.548;2023-02-27T15:45:01;93488.06;;;-6.98
72405;BMP280;60395;52.020;113.548;2023-02-27T15:48:07;93489.81;;;-7.00
72405;BMP280;60395;52.020;113.548;2023-02-27T15:51:13;93490.91;;;-7.03
72405;BMP280;60395;52.020;113.548;2023-02-27T15:54:20;93493.31;;;-7.05
72405;BMP280;60395;52.020;113.548;2023-02-27T15:57:24;93489.94;;;-7.08
72405;BMP280;60395;52.020;113.548;2023-02-27T16:00:30;93498.81;;;-7.09
72405;BMP280;60395;52.020;113.548;2023-02-27T16:03:39;93487.94;;;-7.10
72405;BMP280;60395;52.020;113.548;2023-02-27T16:06:48;93484.16;;;-7.09
72405;BMP280;60395;52.020;113.548;2023-02-27T16:09:59;93493.56;;;-7.11
72405;BMP280;60395;52.020;113.548;2023-02-27T16:13:36;93507.56;;;-7.12
72405;BMP280;60395;52.020;113.548;2023-02-27T16:16:39;93512.94;;;-7.18
72405;BMP280;60395;52.020;113.548;2023-02-27T16:19:43;93508.19;;;-7.21
72405;BMP280;60395;52.020;113.548;2023-02-27T16:23:03;93510.75;;;-7.31
72405;BMP280;60395;52.020;113.548;2023-02-27T16:29:33;93511.97;;;-7.41
72405;BMP280;60395;52.020;113.548;2023-02-27T16:32:41;93506.56;;;-7.46
72405;BMP280;60395;52.020;113.548;2023-02-27T16:35:48;93505.91;;;-7.46
72405;BMP280;60395;52.020;113.548;2023-02-27T16:38:55;93507.09;;;-7.47
72405;BMP280;60395;52.020;113.548;2023-02-27T16:42:00;93505.91;;;-7.46
72405;BMP280;60395;52.020;113.548;2023-02-27T16:45:04;93502.97;;;-7.42
72405;BMP280;60395;52.020;113.548;2023-02-27T16:48:08;93498.25;;;-7.36
72405;BMP280;60395;52.020;113.548;2023-02-27T16:51:17;93501.91;;;-7.39
72405;BMP280;60395;52.020;113.548;2023-02-27T16:54:21;93493.16;;;-7.46
72405;BMP280;60395;52.020;113.548;2023-02-27T16:57:25;93497.31;;;-7.51
72405;BMP280;60395;52.020;113.548;2023-02-27T17:00:29;93495.56;;;-7.48
72405;BMP280;60395;52.020;113.548;2023-02-27T17:03:32;93494.31;;;-7.57
72405;BMP280;60395;52.020;113.548;2023-02-27T17:06:36;93503.19;;;-7.58
72405;BMP280;60395;52.020;113.548;2023-02-27T17:09:39;93502.94;;;-7.62
72405;BMP280;60395;52.020;113.548;2023-02-27T17:12:42;93501.25;;;-7.67
72405;BMP280;60395;52.020;113.548;2023-02-27T17:15:46;93492.69;;;-7.71
72405;BMP280;60395;52.020;113.548;2023-02-27T17:18:49;93494.56;;;-7.72
72405;BMP280;60395;52.020;113.548;2023-02-27T17:21:52;93487.81;;;-7.77
72405;BMP280;60395;52.020;113.548;2023-02-27T17:24:56;93487.81;;;-7.77
72405;BMP280;60395;52.020;113.548;2023-02-27T17:27:59;93485.66;;;-7.80
72405;BMP280;60395;52.020;113.548;2023-02-27T17:31:10;93470.66;;;-7.86
72405;BMP280;60395;52.020;113.548;2023-02-27T17:34:13;93480.41;;;-7.92
72405;BMP280;60395;52.020;113.548;2023-02-27T17:37:18;93467.91;;;-7.98
72405;BMP280;60395;52.020;113.548;2023-02-27T17:40:22;93470.19;;;-8.02
72405;BMP280;60395;52.020;113.548;2023-02-27T17:43:25;93467.47;;;-8.04
72405;BMP280;60395;52.020;113.548;2023-02-27T17:46:29;93472.47;;;-8.06
72405;BMP280;60395;52.020;113.548;2023-02-27T17:49:33;93480.63;;;-8.07
72405;BMP280;60395;52.020;113.548;2023-02-27T17:52:36;93483.00;;;-8.09
72405;BMP280;60395;52.020;113.548;2023-02-27T17:55:40;93484.88;;;-8.10
72405;BMP280;60395;52.020;113.548;2023-02-27T17:58:44;93489.19;;;-8.12
72405;BMP280;60395;52.020;113.548;2023-02-27T18:01:47;93484.84;;;-8.20
72405;BMP280;60395;52.020;113.548;2023-02-27T18:04:51;93481.88;;;-8.26
72405;BMP280;60395;52.020;113.548;2023-02-27T18:07:55;93485.19;;;-8.33
72405;BMP280;60395;52.020;113.548;2023-02-27T18:10:58;93475.53;;;-8.34
72405;BMP280;60395;52.020;113.548;2023-02-27T18:14:05;93475.13;;;-8.31
72405;BMP280;60395;52.020;113.548;2023-02-27T18:17:08;93471.41;;;-8.30
72405;BMP280;60395;52.020;113.548;2023-02-27T18:20:14;93469.28;;;-8.24
72405;BMP280;60395;52.020;113.548;2023-02-27T18:23:18;93470.34;;;-8.27
72405;BMP280;60395;52.020;113.548;2023-02-27T18:26:24;93457.47;;;-8.29
72405;BMP280;60395;52.020;113.548;2023-02-27T18:29:32;93464.44;;;-8.29
72405;BMP280;60395;52.020;113.548;2023-02-27T18:32:35;93465.47;;;-8.32
72405;BMP280;60395;52.020;113.548;2023-02-27T18:35:38;93467.06;;;-8.37
72405;BMP280;60395;52.020;113.548;2023-02-27T18:38:42;93464.22;;;-8.41
72405;BMP280;60395;52.020;113.548;2023-02-27T18:41:45;93456.19;;;-8.47
72405;BMP280;60395;52.020;113.548;2023-02-27T18:44:49;93463.50;;;-8.51
72405;BMP280;60395;52.020;113.548;2023-02-27T18:47:52;93472.06;;;-8.56
72405;BMP280;60395;52.020;113.548;2023-02-27T18:51:05;93472.59;;;-8.58
72405;BMP280;60395;52.020;113.548;2023-02-27T18:54:11;93476.34;;;-8.59
72405;BMP280;60395;52.020;113.548;2023-02-27T18:57:15;93485.34;;;-8.58
72405;BMP280;60395;52.020;113.548;2023-02-27T19:00:19;93477.84;;;-8.56
72405;BMP280;60395;52.020;113.548;2023-02-27T19:03:24;93481.34;;;-8.51
72405;BMP280;60395;52.020;113.548;2023-02-27T19:06:39;93482.16;;;-8.48
72405;BMP280;60395;52.020;113.548;2023-02-27T19:09:42;93480.81;;;-8.49
72405;BMP280;60395;52.020;113.548;2023-02-27T19:12:48;93478.78;;;-8.51
72405;BMP280;60395;52.020;113.548;2023-02-27T19:15:53;93469.31;;;-8.50
72405;BMP280;60395;52.020;113.548;2023-02-27T19:18:57;93466.75;;;-8.50
72405;BMP280;60395;52.020;113.548;2023-02-27T19:22:01;93471.97;;;-8.48
72405;BMP280;60395;52.020;113.548;2023-02-27T19:25:04;93471.06;;;-8.43
72405;BMP280;60395;52.020;113.548;2023-02-27T19:28:09;93467.22;;;-8.35
72405;BMP280;60395;52.020;113.548;2023-02-27T19:31:13;93464.16;;;-8.33
72405;BMP280;60395;52.020;113.548;2023-02-27T19:34:16;93466.16;;;-8.32
72405;BMP280;60395;52.020;113.548;2023-02-27T19:37:20;93464.16;;;-8.33
72405;BMP280;60395;52.020;113.548;2023-02-27T19:40:24;93455.97;;;-8.32
72405;BMP280;60395;52.020;113.548;2023-02-27T19:43:28;93456.63;;;-8.31
72405;BMP280;60395;52.020;113.548;2023-02-27T19:46:32;93460.56;;;-8.30
72405;BMP280;60395;52.020;113.548;2023-02-27T19:49:36;93465.78;;;-8.28
72405;BMP280;60395;52.020;113.548;2023-02-27T19:52:40;93463.91;;;-8.28
72405;BMP280;60395;52.020;113.548;2023-02-27T19:55:43;93460.69;;;-8.28
72405;BMP280;60395;52.020;113.548;2023-02-27T19:58:47;93460.28;;;-8.25